createdAt,value
2019-03-30T00:00:35.471Z,101512.28
2019-03-30T00:03:01.280Z,101510.98
2019-03-30T00:05:27.125Z,101505.00
2019-03-30T00:07:52.938Z,101503.73
2019-03-30T00:10:18.880Z,101505.42
2019-03-30T00:12:44.742Z,101502.80
2019-03-30T00:15:10.697Z,101502.80
2019-03-30T00:17:36.579Z,101487.44
2019-03-30T00:20:04.498Z,101487.44
2019-03-30T00:22:30.383Z,101498.07
2019-03-30T00:24:56.242Z,101496.77
2019-03-30T00:27:22.202Z,101493.83
2019-03-30T00:29:48.130Z,101495.92
2019-03-30T00:32:14.004Z,101492.50
2019-03-30T00:34:39.812Z,101487.83
2019-03-30T00:37:05.665Z,101486.16
2019-03-30T00:39:31.508Z,101484.41
2019-03-30T00:41:57.323Z,101485.68
2019-03-30T00:44:23.224Z,101481.00
2019-03-30T00:46:49.164Z,101482.31
2019-03-30T00:49:15.013Z,101474.62
2019-03-30T00:51:40.898Z,101473.77
2019-03-30T00:54:06.755Z,101469.09
2019-03-30T00:56:32.602Z,101465.70
2019-03-30T00:58:58.586Z,101460.19
2019-03-30T01:01:24.413Z,101458.43
2019-03-30T01:03:50.328Z,101459.34
2019-03-30T01:06:16.463Z,101461.43
2019-03-30T01:08:42.423Z,101452.52
2019-03-30T01:11:08.271Z,101451.22
2019-03-30T01:13:34.129Z,101454.16
2019-03-30T01:16:00.127Z,101458.12
2019-03-30T01:18:25.977Z,101446.60
2019-03-30T01:20:51.829Z,101441.62
2019-03-30T01:23:17.681Z,101441.53
2019-03-30T01:25:43.517Z,101440.29
2019-03-30T01:28:09.344Z,101433.47
2019-03-30T01:30:35.206Z,101432.58
2019-03-30T01:33:01.019Z,101435.56
2019-03-30T01:35:26.921Z,101435.89
2019-03-30T01:37:52.934Z,101434.11
2019-03-30T01:40:18.738Z,101435.77
2019-03-30T01:42:44.734Z,101430.54
2019-03-30T01:45:11.240Z,101431.42
2019-03-30T01:47:37.052Z,101427.18
2019-03-30T01:50:17.376Z,101421.20
2019-03-30T01:52:36.459Z,101415.24
2019-03-30T01:55:04.816Z,101411.77
2019-03-30T01:57:31.067Z,101417.30
2019-03-30T01:59:56.884Z,101410.44
2019-03-30T02:02:22.852Z,101407.49
2019-03-30T02:04:48.701Z,101412.52
2019-03-30T02:07:14.569Z,101408.68
2019-03-30T02:09:40.409Z,101395.02
2019-03-30T02:12:06.980Z,101400.11
2019-03-30T02:14:32.817Z,101397.56
2019-03-30T02:16:58.667Z,101398.77
2019-03-30T02:19:24.716Z,101391.88
2019-03-30T02:21:50.651Z,101395.23
2019-03-30T02:24:16.497Z,101389.30
2019-03-30T02:26:42.441Z,101384.63
2019-03-30T02:29:08.398Z,101385.42
2019-03-30T02:31:34.359Z,101386.30
2019-03-30T02:34:00.213Z,101386.66
2019-03-30T02:36:26.105Z,101387.48
2019-03-30T02:38:51.944Z,101390.87
2019-03-30T02:41:17.874Z,101391.38
2019-03-30T02:43:43.725Z,101386.69
2019-03-30T02:46:09.586Z,101385.94
2019-03-30T02:48:35.461Z,101384.15
2019-03-30T02:51:01.360Z,101384.59
2019-03-30T02:53:27.377Z,101382.45
2019-03-30T02:55:53.229Z,101379.45
2019-03-30T02:58:19.054Z,101376.39
2019-03-30T03:00:45.011Z,101377.24
2019-03-30T03:03:10.948Z,101370.30
2019-03-30T03:05:36.793Z,101367.36
2019-03-30T03:08:02.771Z,101371.15
2019-03-30T03:10:28.822Z,101371.19
2019-03-30T03:12:54.878Z,101366.42
2019-03-30T03:15:20.711Z,101365.12
2019-03-30T03:17:46.544Z,101361.70
2019-03-30T03:20:12.713Z,101367.59
2019-03-30T03:22:42.899Z,101357.42
2019-03-30T03:25:08.972Z,101359.94
2019-03-30T03:27:34.834Z,101358.27
2019-03-30T03:30:00.876Z,101355.70
2019-03-30T03:32:27.079Z,101349.41
2019-03-30T03:34:52.944Z,101349.31
2019-03-30T03:37:18.766Z,101341.72
2019-03-30T03:39:44.603Z,101341.78
2019-03-30T03:42:10.452Z,101338.81
2019-03-30T03:44:36.899Z,101332.06
2019-03-30T03:47:02.765Z,101329.95
2019-03-30T03:49:28.685Z,101328.73
2019-03-30T03:51:54.887Z,101325.26
2019-03-30T03:54:21.300Z,101330.34
2019-03-30T03:56:47.507Z,101317.53
2019-03-30T03:59:14.175Z,101319.59
2019-03-30T04:01:40.124Z,101315.41
2019-03-30T04:04:07.073Z,101323.41
2019-03-30T04:06:33.029Z,101316.62
2019-03-30T04:09:01.176Z,101315.78
2019-03-30T04:11:29.799Z,101312.30
2019-03-30T04:13:56.357Z,101313.56
2019-03-30T04:16:22.210Z,101305.55
2019-03-30T04:18:48.654Z,101299.16
2019-03-30T04:21:14.835Z,101294.11
2019-03-30T04:23:40.735Z,101297.50
2019-03-30T04:26:06.558Z,101291.11
2019-03-30T04:28:32.498Z,101297.80
2019-03-30T04:30:58.345Z,101295.64
2019-03-30T04:33:24.843Z,101293.39
2019-03-30T04:35:50.717Z,101287.92
2019-03-30T04:38:16.535Z,101289.16
2019-03-30T04:40:42.519Z,101292.52
2019-03-30T04:43:08.341Z,101286.16
2019-03-30T04:45:34.350Z,101284.89
2019-03-30T04:48:00.300Z,101278.54
2019-03-30T04:50:26.226Z,101278.15
2019-03-30T04:52:52.062Z,101278.15
2019-03-30T04:55:18.189Z,101282.77
2019-03-30T04:57:44.045Z,101277.20
2019-03-30T05:00:10.092Z,101273.36
2019-03-30T05:02:35.929Z,101278.38
2019-03-30T05:05:01.894Z,101277.88
2019-03-30T05:07:27.878Z,101282.09
2019-03-30T05:09:53.731Z,101274.50
2019-03-30T05:12:19.570Z,101282.19
2019-03-30T05:14:45.543Z,101278.44
2019-03-30T05:17:11.392Z,101273.62
2019-03-30T05:19:37.278Z,101278.73
2019-03-30T05:22:12.034Z,101266.64
2019-03-30T05:24:31.048Z,101269.34
2019-03-30T05:26:56.913Z,101266.74
2019-03-30T05:29:22.741Z,101278.59
2019-03-30T05:31:48.587Z,101276.97
2019-03-30T05:34:14.503Z,101278.56
2019-03-30T05:36:40.330Z,101279.87
2019-03-30T05:39:06.327Z,101273.66
2019-03-30T05:41:32.198Z,101280.36
2019-03-30T05:43:58.209Z,101277.17
2019-03-30T05:46:24.073Z,101280.23
2019-03-30T05:48:49.882Z,101284.05
2019-03-30T05:51:15.746Z,101281.60
2019-03-30T05:53:41.681Z,101279.16
2019-03-30T05:56:07.553Z,101281.79
2019-03-30T05:58:33.491Z,101282.01
2019-03-30T06:00:59.332Z,101281.73
2019-03-30T06:03:25.189Z,101278.27
2019-03-30T06:05:51.053Z,101279.38
2019-03-30T06:08:16.867Z,101282.29
2019-03-30T06:10:42.729Z,101282.88
2019-03-30T06:13:08.606Z,101279.73
2019-03-30T06:15:34.422Z,101279.45
2019-03-30T06:18:00.268Z,101284.20
2019-03-30T06:20:26.110Z,101278.44
2019-03-30T06:22:51.963Z,101279.03
2019-03-30T06:25:17.837Z,101279.61
2019-03-30T06:27:43.655Z,101269.89
2019-03-30T06:30:12.304Z,101268.59
2019-03-30T06:32:38.161Z,101270.78
2019-03-30T06:35:04.104Z,101269.50
2019-03-30T06:37:29.959Z,101262.67
2019-03-30T06:39:56.852Z,101267.78
2019-03-30T06:42:22.781Z,101263.05
2019-03-30T06:44:48.639Z,101258.33
2019-03-30T06:47:14.887Z,101254.53
2019-03-30T06:49:40.858Z,101256.59
2019-03-30T06:52:06.843Z,101261.77
2019-03-30T06:54:32.680Z,101260.31
2019-03-30T06:56:59.032Z,101255.20
2019-03-30T06:59:24.913Z,101255.14
2019-03-30T07:01:51.745Z,101264.83
2019-03-30T07:04:18.238Z,101259.42
2019-03-30T07:06:45.876Z,101257.30
2019-03-30T07:09:11.715Z,101250.86
2019-03-30T07:11:40.687Z,101251.61
2019-03-30T07:14:09.310Z,101254.87
2019-03-30T07:16:35.384Z,101249.70
2019-03-30T07:19:02.793Z,101243.16
2019-03-30T07:21:28.589Z,101244.80
2019-03-30T07:23:54.576Z,101245.08
2019-03-30T07:26:20.436Z,101245.88
2019-03-30T07:28:47.198Z,101238.39
2019-03-30T07:31:13.526Z,101246.22
2019-03-30T07:33:39.352Z,101255.34
2019-03-30T07:36:05.231Z,101252.50
2019-03-30T07:38:31.048Z,101257.13
2019-03-30T07:40:56.868Z,101252.44
2019-03-30T07:43:22.712Z,101253.61
2019-03-30T07:45:48.504Z,101253.31
2019-03-30T07:48:14.446Z,101252.20
2019-03-30T07:50:40.429Z,101257.80
2019-03-30T07:53:06.322Z,101254.73
2019-03-30T07:55:32.205Z,101255.32
2019-03-30T07:57:58.161Z,101254.66
2019-03-30T08:00:29.220Z,101247.54
2019-03-30T08:02:51.799Z,101247.97
2019-03-30T08:05:17.673Z,101257.20
2019-03-30T08:07:43.502Z,101255.12
2019-03-30T08:10:09.761Z,101254.81
2019-03-30T08:12:36.530Z,101253.17
2019-03-30T08:15:05.391Z,101244.76
2019-03-30T08:17:31.233Z,101246.66
2019-03-30T08:19:57.452Z,101242.93
2019-03-30T08:22:23.690Z,101241.36
2019-03-30T08:24:49.544Z,101241.27
2019-03-30T08:27:15.377Z,101240.06
2019-03-30T08:29:41.245Z,101235.48
2019-03-30T08:32:07.113Z,101236.95
2019-03-30T08:34:32.996Z,101233.46
2019-03-30T08:36:59.530Z,101235.75
2019-03-30T08:39:25.491Z,101229.83
2019-03-30T08:41:51.360Z,101236.20
2019-03-30T08:44:17.191Z,101237.33
2019-03-30T08:46:43.102Z,101234.08
2019-03-30T08:49:09.067Z,101236.67
2019-03-30T08:51:34.945Z,101228.88
2019-03-30T08:54:00.881Z,101221.48
2019-03-30T08:56:28.144Z,101220.16
2019-03-30T08:58:55.173Z,101218.66
2019-03-30T09:01:21.025Z,101204.70
2019-03-30T09:03:46.898Z,101211.34
2019-03-30T09:06:12.767Z,101211.83
2019-03-30T09:08:38.584Z,101207.60
2019-03-30T09:11:04.472Z,101195.52
2019-03-30T09:13:30.323Z,101199.80
2019-03-30T09:15:56.169Z,101194.12
2019-03-30T09:18:22.026Z,101191.73
2019-03-30T09:20:47.935Z,101191.31
2019-03-30T09:23:13.793Z,101188.13
2019-03-30T09:25:39.658Z,101189.83
2019-03-30T09:28:05.470Z,101185.07
2019-03-30T09:30:31.383Z,101187.36
2019-03-30T09:32:57.210Z,101178.59
2019-03-30T09:35:23.127Z,101181.80
2019-03-30T09:37:49.015Z,101179.73
2019-03-30T09:40:14.954Z,101184.38
2019-03-30T09:42:40.827Z,101170.73
2019-03-30T09:45:07.187Z,101169.44
2019-03-30T09:47:33.001Z,101164.66
2019-03-30T09:50:02.304Z,101162.01
2019-03-30T09:52:26.605Z,101160.31
2019-03-30T09:54:52.566Z,101157.27
2019-03-30T09:57:18.446Z,101162.55
2019-03-30T09:59:44.288Z,101157.05
2019-03-30T10:02:10.148Z,101157.56
2019-03-30T10:04:36.059Z,101148.20
2019-03-30T10:07:01.894Z,101146.23
2019-03-30T10:09:27.749Z,101144.69
2019-03-30T10:11:53.625Z,101149.56
2019-03-30T10:14:19.449Z,101151.33
2019-03-30T10:16:48.593Z,101157.61
2019-03-30T10:19:13.060Z,101153.83
2019-03-30T10:21:38.926Z,101146.54
2019-03-30T10:24:04.898Z,101148.45
2019-03-30T10:26:30.706Z,101138.59
2019-03-30T10:28:56.559Z,101135.42
2019-03-30T10:31:22.375Z,101141.14
2019-03-30T10:33:48.212Z,101137.17
2019-03-30T10:36:14.086Z,101137.42
2019-03-30T10:38:39.935Z,101129.94
2019-03-30T10:41:05.793Z,101129.25
2019-03-30T10:43:31.711Z,101128.69
2019-03-30T10:45:58.050Z,101124.81
2019-03-30T10:48:23.930Z,101119.78
2019-03-30T10:50:49.892Z,101120.53
2019-03-30T10:53:15.758Z,101116.91
2019-03-30T10:55:41.692Z,101113.88
2019-03-30T10:58:07.598Z,101111.05
2019-03-30T11:00:35.432Z,101106.66
2019-03-30T11:03:01.290Z,101108.37
2019-03-30T11:05:27.120Z,101106.11
2019-03-30T11:07:52.987Z,101104.91
2019-03-30T11:10:18.997Z,101096.77
2019-03-30T11:12:44.832Z,101100.59
2019-03-30T11:15:10.781Z,101098.94
2019-03-30T11:17:36.583Z,101095.24
2019-03-30T11:20:03.491Z,101090.27
2019-03-30T11:22:29.388Z,101089.36
2019-03-30T11:25:06.753Z,101090.77
2019-03-30T11:27:22.987Z,101080.34
2019-03-30T11:29:48.812Z,101080.53
2019-03-30T11:32:14.662Z,101075.25
2019-03-30T11:34:40.550Z,101065.88
2019-03-30T11:37:06.361Z,101064.77
2019-03-30T11:39:32.219Z,101075.23
2019-03-30T11:41:58.059Z,101065.97
2019-03-30T11:44:23.908Z,101061.67
2019-03-30T11:46:49.728Z,101053.31
2019-03-30T11:49:15.554Z,101050.72
2019-03-30T11:51:41.381Z,101057.30
2019-03-30T11:54:07.756Z,101050.06
2019-03-30T11:56:33.625Z,101041.66
2019-03-30T11:58:59.470Z,101039.85
2019-03-30T12:01:25.429Z,101041.70
2019-03-30T12:03:51.310Z,101028.28
2019-03-30T12:06:17.273Z,101036.01
2019-03-30T12:08:43.134Z,101027.67
2019-03-30T12:11:09.092Z,101018.05
2019-03-30T12:13:34.983Z,101020.00
2019-03-30T12:16:00.902Z,101020.32
2019-03-30T12:18:26.798Z,101010.59
2019-03-30T12:20:52.756Z,101016.10
2019-03-30T12:23:18.607Z,101011.53
2019-03-30T12:25:44.540Z,101007.14
2019-03-30T12:28:10.340Z,101006.58
2019-03-30T12:30:36.209Z,100992.64
2019-03-30T12:33:02.251Z,100991.61
2019-03-30T12:35:28.076Z,100982.16
2019-03-30T12:37:53.921Z,100982.23
2019-03-30T12:40:19.985Z,100975.17
2019-03-30T12:42:45.904Z,100972.49
2019-03-30T12:45:12.266Z,100964.88
2019-03-30T12:47:38.109Z,100961.32
2019-03-30T12:50:05.223Z,100958.98
2019-03-30T12:52:31.089Z,100951.99
2019-03-30T12:54:56.937Z,100952.96
2019-03-30T12:57:22.795Z,100945.75
2019-03-30T12:59:48.751Z,100945.37
2019-03-30T13:02:14.558Z,100943.30
2019-03-30T13:04:40.518Z,100936.42
2019-03-30T13:07:06.344Z,100941.27
2019-03-30T13:09:34.759Z,100942.77
2019-03-30T13:11:59.950Z,100939.31
2019-03-30T13:14:25.876Z,100934.41
2019-03-30T13:16:51.722Z,100929.62
2019-03-30T13:19:17.585Z,100931.97
2019-03-30T13:21:52.526Z,100926.84
2019-03-30T13:24:11.284Z,100928.91
2019-03-30T13:26:37.096Z,100925.28
2019-03-30T13:29:03.047Z,100923.20
2019-03-30T13:31:28.933Z,100924.51
2019-03-30T13:33:54.751Z,100924.77
2019-03-30T13:36:22.534Z,100926.31
2019-03-30T13:38:48.351Z,100925.95
2019-03-30T13:41:14.555Z,100920.47
2019-03-30T13:43:40.561Z,100918.47
2019-03-30T13:46:06.403Z,100918.04
2019-03-30T13:48:32.380Z,100914.53
2019-03-30T13:50:58.280Z,100900.66
2019-03-30T13:53:24.125Z,100901.95
2019-03-30T13:55:49.984Z,100906.44
2019-03-30T13:58:15.875Z,100896.41
2019-03-30T14:00:41.791Z,100892.99
2019-03-30T14:03:07.719Z,100890.33
2019-03-30T14:05:33.564Z,100885.33
2019-03-30T14:07:59.452Z,100876.09
2019-03-30T14:10:25.334Z,100881.75
2019-03-30T14:12:51.159Z,100876.09
2019-03-30T14:15:17.018Z,100873.74
2019-03-30T14:17:43.071Z,100874.73
2019-03-30T14:20:09.717Z,100866.70
2019-03-30T14:22:35.969Z,100867.83
2019-03-30T14:25:03.016Z,100866.15
2019-03-30T14:27:28.872Z,100861.27
2019-03-30T14:29:54.750Z,100853.78
2019-03-30T14:32:20.683Z,100855.89
2019-03-30T14:34:46.537Z,100853.27
2019-03-30T14:37:12.371Z,100845.63
2019-03-30T14:39:38.236Z,100839.91
2019-03-30T14:42:04.097Z,100839.39
2019-03-30T14:44:29.902Z,100843.55
2019-03-30T14:46:55.944Z,100827.64
2019-03-30T14:49:21.799Z,100826.66
2019-03-30T14:51:47.634Z,100822.92
2019-03-30T14:54:13.491Z,100820.95
2019-03-30T14:56:45.865Z,100820.02
2019-03-30T14:59:10.315Z,100814.87
2019-03-30T15:01:35.489Z,100810.55
2019-03-30T15:04:01.853Z,100815.02
2019-03-30T15:06:28.107Z,100811.44
2019-03-30T15:08:55.109Z,100808.75
2019-03-30T15:14:09.165Z,100803.19
2019-03-30T15:16:37.775Z,100810.85
2019-03-30T15:19:06.619Z,100808.44
2019-03-30T15:21:35.447Z,100803.03
2019-03-30T15:24:04.717Z,100796.59
2019-03-30T15:26:33.238Z,100795.07
2019-03-30T15:29:01.844Z,100792.66
2019-03-30T15:31:30.371Z,100792.63
2019-03-30T15:33:58.871Z,100787.69
2019-03-30T15:36:27.366Z,100778.27
2019-03-30T15:38:56.554Z,100783.89
2019-03-30T15:41:25.008Z,100779.41
2019-03-30T15:43:54.973Z,100780.19
2019-03-30T15:46:23.520Z,100766.54
2019-03-30T15:48:52.035Z,100766.54
2019-03-30T15:51:21.108Z,100768.89
2019-03-30T15:53:49.630Z,100775.45
2019-03-30T15:56:18.589Z,100759.50
2019-03-30T15:58:47.351Z,100764.38
2019-03-30T16:01:15.806Z,100774.75
2019-03-30T16:03:44.685Z,100768.28
2019-03-30T16:06:13.273Z,100761.95
2019-03-30T16:08:43.352Z,100767.60
2019-03-30T16:11:12.610Z,100764.36
2019-03-30T16:13:41.042Z,100763.52
2019-03-30T16:16:09.990Z,100765.36
2019-03-30T16:18:38.446Z,100761.62
2019-03-30T16:21:06.867Z,100758.52
2019-03-30T16:23:35.411Z,100759.91
2019-03-30T16:26:04.004Z,100763.55
2019-03-30T16:28:32.453Z,100765.77
2019-03-30T16:31:01.165Z,100761.11
2019-03-30T16:33:29.624Z,100763.90
2019-03-30T16:35:58.085Z,100758.72
2019-03-30T16:38:26.635Z,100762.87
2019-03-30T16:40:55.158Z,100765.08
2019-03-30T16:43:23.621Z,100762.29
2019-03-30T16:45:52.095Z,100761.11
2019-03-30T16:48:20.526Z,100761.77
2019-03-30T16:50:48.985Z,100758.03
2019-03-30T16:53:17.438Z,100754.31
2019-03-30T16:55:46.049Z,100755.70
2019-03-30T16:58:14.698Z,100756.53
2019-03-30T17:00:55.743Z,100748.39
2019-03-30T17:03:13.389Z,100750.31
2019-03-30T17:05:41.864Z,100747.27
2019-03-30T17:08:10.325Z,100745.97
2019-03-30T17:10:40.444Z,100746.02
2019-03-30T17:13:09.069Z,100749.17
2019-03-30T17:15:37.519Z,100748.91
2019-03-30T17:18:06.060Z,100752.52
2019-03-30T17:20:34.501Z,100752.20
2019-03-30T17:23:03.025Z,100748.52
2019-03-30T17:25:31.524Z,100753.05
2019-03-30T17:27:59.980Z,100747.58
2019-03-30T17:30:28.448Z,100753.64
2019-03-30T17:32:56.878Z,100756.88
2019-03-30T17:35:25.339Z,100760.20
2019-03-30T17:37:53.889Z,100763.77
2019-03-30T17:40:22.318Z,100766.72
2019-03-30T17:42:50.802Z,100768.44
2019-03-30T17:45:19.814Z,100770.27
2019-03-30T17:47:48.257Z,100763.63
2019-03-30T17:50:16.872Z,100776.78
2019-03-30T17:52:45.360Z,100774.18
2019-03-30T17:55:14.444Z,100778.94
2019-03-30T17:57:42.957Z,100778.34
2019-03-30T18:00:17.657Z,100785.03
2019-03-30T18:02:46.222Z,100787.05
2019-03-30T18:05:14.739Z,100790.20
2019-03-30T18:07:43.020Z,100791.26
2019-03-30T18:10:12.375Z,100793.97
2019-03-30T18:12:40.824Z,100794.56
2019-03-30T18:15:10.011Z,100793.60
2019-03-30T18:17:40.219Z,100796.64
2019-03-30T18:20:09.180Z,100800.84
2019-03-30T18:22:37.689Z,100803.27
2019-03-30T18:25:06.762Z,100810.30
2019-03-30T18:27:35.192Z,100812.80
2019-03-30T18:30:04.928Z,100819.12
2019-03-30T18:32:33.942Z,100817.19
2019-03-30T18:35:04.728Z,100825.02
2019-03-30T18:37:35.031Z,100822.55
2019-03-30T18:40:05.275Z,100822.48
2019-03-30T18:42:33.846Z,100826.59
2019-03-30T18:45:02.467Z,100825.87
2019-03-30T18:47:30.922Z,100830.27
2019-03-30T18:49:59.413Z,100837.17
2019-03-30T18:52:28.037Z,100834.63
2019-03-30T18:54:57.373Z,100841.11
2019-03-30T18:57:25.797Z,100845.51
2019-03-30T18:59:54.226Z,100843.53
2019-03-30T19:02:22.713Z,100840.95
2019-03-30T19:04:51.179Z,100837.75
2019-03-30T19:07:19.614Z,100836.95
2019-03-30T19:09:48.957Z,100835.95
2019-03-30T19:12:17.372Z,100841.28
2019-03-30T19:14:46.003Z,100848.70
2019-03-30T19:17:14.482Z,100849.63
2019-03-30T19:19:42.943Z,100853.67
2019-03-30T19:22:11.435Z,100853.29
2019-03-30T19:24:39.970Z,100852.10
2019-03-30T19:27:08.421Z,100854.69
2019-03-30T19:29:36.881Z,100846.25
2019-03-30T19:32:05.434Z,100844.95
2019-03-30T19:34:33.854Z,100848.02
2019-03-30T19:37:02.311Z,100852.86
2019-03-30T19:39:30.768Z,100844.91
2019-03-30T19:41:59.217Z,100839.81
2019-03-30T19:44:27.756Z,100842.95
2019-03-30T19:46:56.192Z,100846.97
2019-03-30T19:49:25.133Z,100844.55
2019-03-30T19:51:53.717Z,100848.03
2019-03-30T19:54:22.154Z,100847.71
2019-03-30T19:56:50.627Z,100848.77
2019-03-30T19:59:19.054Z,100852.72
2019-03-30T20:01:47.593Z,100849.56
2019-03-30T20:04:16.058Z,100856.14
2019-03-30T20:06:44.508Z,100854.63
2019-03-30T20:09:13.119Z,100853.59
2019-03-30T20:11:41.552Z,100847.73
2019-03-30T20:14:10.034Z,100851.34
2019-03-30T20:16:42.087Z,100848.44
2019-03-30T20:19:12.651Z,100854.06
2019-03-30T20:21:38.854Z,100847.34
2019-03-30T20:24:07.339Z,100851.41
2019-03-30T20:26:35.782Z,100843.87
2019-03-30T20:29:04.607Z,100842.70
2019-03-30T20:31:33.077Z,100846.59
2019-03-30T20:34:01.520Z,100840.29
2019-03-30T20:36:29.986Z,100846.80
2019-03-30T20:38:59.022Z,100842.94
2019-03-30T20:41:27.704Z,100841.27
2019-03-30T20:43:56.831Z,100844.02
2019-03-30T20:46:25.454Z,100843.33
2019-03-30T20:48:53.924Z,100845.14
2019-03-30T20:51:22.956Z,100837.55
2019-03-30T20:53:51.582Z,100846.59
2019-03-30T20:56:20.241Z,100838.07
2019-03-30T20:58:49.198Z,100833.80
2019-03-30T21:01:19.317Z,100841.55
2019-03-30T21:03:47.982Z,100837.30
2019-03-30T21:06:17.319Z,100840.19
2019-03-30T21:08:45.800Z,100839.24
2019-03-30T21:11:14.312Z,100835.38
2019-03-30T21:13:42.820Z,100837.94
2019-03-30T21:16:11.353Z,100838.94
2019-03-30T21:18:40.051Z,100840.87
2019-03-30T21:21:09.331Z,100836.30
2019-03-30T21:23:38.361Z,100846.99
2019-03-30T21:26:06.885Z,100850.03
2019-03-30T21:28:35.400Z,100857.67
2019-03-30T21:31:05.766Z,100861.68
2019-03-30T21:33:34.356Z,100859.70
2019-03-30T21:36:03.032Z,100857.94
2019-03-30T21:38:31.512Z,100856.36
2019-03-30T21:41:00.155Z,100855.59
2019-03-30T21:43:28.616Z,100855.57
2019-03-30T21:45:57.084Z,100861.13
2019-03-30T21:48:27.405Z,100859.59
2019-03-30T21:50:56.043Z,100863.41
2019-03-30T21:53:24.503Z,100855.77
2019-03-30T21:55:53.287Z,100860.06
2019-03-30T21:58:21.897Z,100862.69
2019-03-30T22:00:50.595Z,100859.77
2019-03-30T22:03:19.196Z,100861.95
2019-03-30T22:05:47.648Z,100863.33
2019-03-30T22:08:17.861Z,100864.23
2019-03-30T22:10:46.297Z,100873.33
2019-03-30T22:13:15.024Z,100870.39
2019-03-30T22:15:43.466Z,100872.60
2019-03-30T22:18:12.027Z,100871.79
2019-03-30T22:20:40.520Z,100874.11
2019-03-30T22:23:08.918Z,100877.51
2019-03-30T22:25:37.408Z,100874.19
2019-03-30T22:28:05.934Z,100878.79
2019-03-30T22:30:34.405Z,100876.36
2019-03-30T22:33:02.885Z,100876.47
2019-03-30T22:35:31.533Z,100882.53
2019-03-30T22:38:07.555Z,100880.87
2019-03-30T22:40:36.010Z,100877.98
2019-03-30T22:43:04.581Z,100880.20
2019-03-30T22:45:33.132Z,100879.41
2019-03-30T22:48:01.631Z,100881.64
2019-03-30T22:50:30.351Z,100887.67
2019-03-30T22:52:58.882Z,100889.02
2019-03-30T22:55:27.326Z,100883.95
2019-03-30T22:57:55.765Z,100883.62
2019-03-30T23:00:38.920Z,100887.84
2019-03-30T23:03:08.053Z,100890.86
2019-03-30T23:05:36.536Z,100890.22
2019-03-30T23:08:05.124Z,100888.71
2019-03-30T23:10:33.615Z,100888.09
2019-03-30T23:13:02.075Z,100887.32
2019-03-30T23:15:30.503Z,100890.35
2019-03-30T23:17:59.127Z,100889.14
2019-03-30T23:20:27.672Z,100886.92
2019-03-30T23:22:56.138Z,100884.77
2019-03-30T23:25:24.579Z,100881.69
2019-03-30T23:27:53.043Z,100883.77
2019-03-30T23:30:21.643Z,100883.73
2019-03-30T23:32:50.123Z,100886.73
2019-03-30T23:35:18.549Z,100884.17
2019-03-30T23:37:46.998Z,100885.53
2019-03-30T23:40:15.459Z,100885.93
2019-03-30T23:42:43.896Z,100885.13
2019-03-30T23:45:12.483Z,100887.28
2019-03-30T23:47:40.937Z,100884.91
2019-03-30T23:50:10.327Z,100882.41
2019-03-30T23:52:38.781Z,100889.98
2019-03-30T23:55:07.487Z,100891.22
2019-03-30T23:57:35.927Z,100892.50
